Time;durP1;ratioP1;P1;durP2;ratioP2;P2;SDS_P1;SDS_P2;PMS_P1;PMS_P2;Temp;Humidity;BMP_temperature;BMP_pressure;BME280_temperature;BME280_humidity;BME280_pressure;Samples;Min_cycle;Max_cycle;Signal;HPM_P1;HPM_P2
2021/12/13 00:01:52;;;;;;;10.70;7.03;;;7.80;93.10;;;;;;4946092;28;20581;-65
2021/12/13 00:04:25;;;;;;;9.73;6.50;;;7.80;93.20;;;;;;4969356;28;20406;-64
2021/12/13 00:07:12;;;;;;;12.02;7.65;;;7.80;93.20;;;;;;4967279;28;20041;-64
2021/12/13 00:09:43;;;;;;;9.57;6.13;;;7.90;93.30;;;;;;4964752;28;20100;-65
2021/12/13 00:12:09;;;;;;;10.05;6.45;;;7.90;93.30;;;;;;4968226;28;20039;-64
2021/12/13 00:14:47;;;;;;;13.13;7.20;;;7.80;93.30;;;;;;4965599;28;20039;-64
2021/12/13 00:17:20;;;;;;;11.05;6.70;;;7.90;93.30;;;;;;4965067;28;20034;-65
2021/12/13 00:19:55;;;;;;;11.00;7.15;;;7.90;93.30;;;;;;4966685;28;20039;-66
2021/12/13 00:22:46;;;;;;;10.25;6.72;;;7.90;93.30;;;;;;4967046;28;20034;-66
2021/12/13 00:25:18;;;;;;;10.90;6.20;;;7.90;93.30;;;;;;4966120;28;20997;-66
2021/12/13 00:27:55;;;;;;;11.93;7.07;;;7.90;93.30;;;;;;4964063;28;20034;-66
2021/12/13 00:30:33;;;;;;;11.98;7.55;;;8.00;93.30;;;;;;4964145;28;20034;-66
2021/12/13 00:33:07;;;;;;;12.23;7.90;;;8.00;93.30;;;;;;4967138;28;20031;-66
2021/12/13 00:35:45;;;;;;;11.23;7.03;;;8.00;93.20;;;;;;4967155;28;20038;-64
2021/12/13 00:38:13;;;;;;;9.85;7.32;;;8.00;93.20;;;;;;4966857;28;20694;-64
2021/12/13 00:40:43;;;;;;;11.77;8.07;;;8.00;93.10;;;;;;4964656;28;20026;-64
2021/12/13 00:43:21;;;;;;;13.13;8.20;;;8.00;93.10;;;;;;4960207;28;20066;-64
2021/12/13 00:45:56;;;;;;;11.48;7.13;;;8.00;93.20;;;;;;4963253;28;20053;-64
2021/12/13 00:48:25;;;;;;;12.90;7.53;;;8.00;93.20;;;;;;4966386;28;20037;-64
2021/12/13 00:51:05;;;;;;;13.07;7.88;;;8.00;93.20;;;;;;4968060;28;20125;-64
2021/12/13 00:53:37;;;;;;;11.13;6.78;;;8.00;93.20;;;;;;4964638;28;20571;-64
2021/12/13 00:56:45;;;;;;;11.45;6.97;;;8.00;93.20;;;;;;4964139;28;20502;-64
2021/12/13 00:59:19;;;;;;;14.02;7.68;;;8.00;93.10;;;;;;4954307;28;20688;-64
2021/12/13 01:01:58;;;;;;;14.65;9.15;;;8.00;93.10;;;;;;4967617;28;20026;-64
2021/12/13 01:05:02;;;;;;;12.32;7.53;;;8.00;93.10;;;;;;4963642;28;20074;-64
2021/12/13 01:07:34;;;;;;;12.35;7.63;;;8.00;93.10;;;;;;4964042;28;20042;-65
2021/12/13 01:10:33;;;;;;;11.40;7.25;;;8.00;93.10;;;;;;4933941;28;20065;-64
2021/12/13 01:13:00;;;;;;;13.20;7.90;;;8.00;93.10;;;;;;4966231;28;20037;-64
2021/12/13 01:15:37;;;;;;;15.73;9.13;;;8.00;93.10;;;;;;4968096;28;20154;-64
2021/12/13 01:18:34;;;;;;;12.52;7.75;;;8.00;93.20;;;;;;4963486;28;20050;-64
2021/12/13 01:23:53;;;;;;;12.82;6.95;;;8.00;93.10;;;;;;4962026;28;20078;-64
2021/12/13 01:28:56;;;;;;;11.50;6.75;;;8.00;93.00;;;;;;4969882;28;20117;-64
2021/12/13 01:31:34;;;;;;;14.07;7.20;;;8.00;92.90;;;;;;4964025;28;20031;-64
2021/12/13 01:34:02;;;;;;;11.77;7.07;;;8.00;93.00;;;;;;4966059;28;20050;-64
2021/12/13 01:36:42;;;;;;;12.77;7.70;;;8.00;92.90;;;;;;4965127;28;20065;-65
2021/12/13 01:39:13;;;;;;;13.60;7.30;;;8.00;92.90;;;;;;4961059;28;20066;-64
2021/12/13 01:41:47;;;;;;;17.90;8.30;;;8.00;92.90;;;;;;4962610;28;20030;-64
2021/12/13 01:44:21;;;;;;;17.52;8.85;;;8.00;92.90;;;;;;4962319;28;20366;-65
2021/12/13 01:46:52;;;;;;;17.02;7.68;;;8.00;93.00;;;;;;4963629;28;20122;-64
2021/12/13 01:49:19;;;;;;;16.50;7.60;;;8.00;93.00;;;;;;4963641;28;20042;-65
2021/12/13 01:51:47;;;;;;;18.90;9.75;;;8.00;93.00;;;;;;4964213;28;20031;-64
2021/12/13 01:54:21;;;;;;;17.52;8.98;;;8.00;93.00;;;;;;4962098;28;20115;-65
2021/12/13 01:56:58;;;;;;;15.73;8.52;;;8.00;93.00;;;;;;4963169;28;20158;-65
2021/12/13 02:02:11;;;;;;;18.38;9.40;;;8.00;93.10;;;;;;4958842;28;20041;-65
2021/12/13 02:04:38;;;;;;;16.75;7.68;;;8.00;93.10;;;;;;4957051;28;20101;-64
2021/12/13 02:07:05;;;;;;;12.75;7.20;;;8.00;93.10;;;;;;4955157;28;20031;-65
2021/12/13 02:09:40;;;;;;;14.93;7.18;;;8.00;93.20;;;;;;4958281;28;20031;-65
2021/12/13 02:12:13;;;;;;;15.50;7.93;;;8.00;93.10;;;;;;4958236;28;20042;-65
2021/12/13 02:14:50;;;;;;;18.17;8.95;;;8.00;93.30;;;;;;4966846;28;20030;-64
2021/12/13 02:17:22;;;;;;;13.45;7.43;;;8.00;93.10;;;;;;4963924;28;20649;-64
2021/12/13 02:19:59;;;;;;;14.25;8.05;;;8.00;93.10;;;;;;4962974;28;20077;-64
2021/12/13 02:22:31;;;;;;;17.55;8.50;;;8.00;93.10;;;;;;4961745;28;20033;-65
2021/12/13 02:25:03;;;;;;;19.42;9.82;;;8.00;93.10;;;;;;4965526;28;20042;-65
2021/12/13 02:27:32;;;;;;;15.98;8.68;;;8.00;93.10;;;;;;4964273;28;20035;-65
2021/12/13 02:30:04;;;;;;;18.88;9.10;;;8.00;93.20;;;;;;4965197;28;20034;-65
2021/12/13 02:32:35;;;;;;;15.48;8.77;;;8.00;93.20;;;;;;4965027;28;20121;-65
2021/12/13 02:35:03;;;;;;;17.80;8.80;;;8.00;93.30;;;;;;4962047;28;20030;-65
2021/12/13 02:37:29;;;;;;;15.57;7.82;;;7.90;93.30;;;;;;4962190;28;20538;-65
2021/12/13 02:39:59;;;;;;;18.40;8.38;;;7.90;93.30;;;;;;4970121;28;20038;-64
2021/12/13 02:42:27;;;;;;;13.60;7.70;;;7.90;93.30;;;;;;4964581;28;20038;-65
2021/12/13 02:45:13;;;;;;;22.13;10.50;;;8.00;93.30;;;;;;4964974;28;20034;-65
2021/12/13 02:47:44;;;;;;;17.25;8.90;;;7.90;93.40;;;;;;4964200;28;20392;-64
2021/12/13 02:50:25;;;;;;;17.42;8.30;;;7.90;93.30;;;;;;4962447;28;20096;-64
2021/12/13 02:52:51;;;;;;;18.75;9.25;;;7.90;93.30;;;;;;4966130;28;20122;-65
2021/12/13 02:55:25;;;;;;;16.77;7.88;;;7.90;93.30;;;;;;4964672;28;20113;-65
2021/12/13 02:57:53;;;;;;;19.25;8.82;;;7.90;93.30;;;;;;4966137;28;20161;-65
2021/12/13 03:00:22;;;;;;;17.40;8.35;;;7.90;93.40;;;;;;4964059;28;20045;-65
2021/12/13 03:02:51;;;;;;;16.85;8.20;;;7.90;93.40;;;;;;4963612;28;20046;-65
2021/12/13 03:05:27;;;;;;;19.73;9.95;;;7.90;93.30;;;;;;4964415;28;20038;-64
2021/12/13 03:07:56;;;;;;;20.13;9.43;;;7.90;93.30;;;;;;4959329;28;20090;-64
2021/12/13 03:10:35;;;;;;;17.98;8.85;;;7.90;93.40;;;;;;4971397;28;20081;-65
2021/12/13 03:13:01;;;;;;;20.65;8.70;;;7.90;93.40;;;;;;4964655;28;20836;-64
2021/12/13 03:15:30;;;;;;;21.98;10.32;;;7.90;93.40;;;;;;4964863;28;20049;-64
2021/12/13 03:18:05;;;;;;;21.95;9.90;;;7.90;93.30;;;;;;4962464;28;20034;-64
2021/12/13 03:20:43;;;;;;;26.13;10.30;;;7.80;93.50;;;;;;4965032;28;20043;-65
2021/12/13 03:23:23;;;;;;;17.90;8.35;;;7.80;93.50;;;;;;4961472;28;20526;-65
2021/12/13 03:26:08;;;;;;;15.15;8.02;;;7.80;93.50;;;;;;4966599;28;20038;-64
2021/12/13 03:29:01;;;;;;;18.30;9.15;;;7.80;93.60;;;;;;4961287;28;20066;-64
2021/12/13 03:31:36;;;;;;;17.75;8.73;;;7.80;93.60;;;;;;4976581;28;20087;-65
2021/12/13 03:34:09;;;;;;;19.15;8.40;;;7.80;93.70;;;;;;4961870;28;20034;-65
2021/12/13 03:37:17;;;;;;;15.32;8.10;;;7.80;93.50;;;;;;4964662;28;20161;-64
2021/12/13 03:39:48;;;;;;;19.58;9.02;;;7.80;93.60;;;;;;4918625;29;20045;-65
2021/12/13 03:42:23;;;;;;;16.55;8.48;;;7.70;93.60;;;;;;4919791;29;20074;-64
2021/12/13 03:44:53;;;;;;;18.37;9.23;;;7.80;93.70;;;;;;4945742;28;20769;-64
2021/12/13 03:47:25;;;;;;;20.00;8.85;;;7.80;93.50;;;;;;4960581;28;20026;-64
2021/12/13 03:49:55;;;;;;;15.23;8.05;;;7.80;93.70;;;;;;4966244;28;20043;-65
2021/12/13 03:52:24;;;;;;;21.20;9.13;;;7.80;93.60;;;;;;4965350;28;20046;-64
2021/12/13 03:54:53;;;;;;;21.67;8.88;;;7.70;93.60;;;;;;4962886;28;20927;-65
2021/12/13 03:57:19;;;;;;;20.02;10.02;;;7.80;93.70;;;;;;4963531;28;20045;-65
2021/12/13 03:59:47;;;;;;;18.80;9.20;;;7.80;93.60;;;;;;4961977;28;20031;-65
2021/12/13 04:02:22;;;;;;;26.10;9.05;;;7.80;93.50;;;;;;4965169;28;20041;-65
2021/12/13 04:04:52;;;;;;;19.80;8.77;;;7.80;93.50;;;;;;4967884;28;20031;-65
2021/12/13 04:07:25;;;;;;;20.17;8.73;;;7.80;93.50;;;;;;4966722;28;20134;-64
2021/12/13 04:09:55;;;;;;;17.23;8.05;;;7.70;93.60;;;;;;4967376;28;20045;-64
2021/12/13 04:12:38;;;;;;;16.95;8.30;;;7.70;93.70;;;;;;4962468;28;20030;-65
2021/12/13 04:15:19;;;;;;;21.05;8.57;;;7.70;93.60;;;;;;4967436;28;20398;-64
2021/12/13 04:17:59;;;;;;;18.48;8.10;;;7.70;93.70;;;;;;4971311;28;20034;-65
2021/12/13 04:20:32;;;;;;;19.70;8.65;;;7.80;93.70;;;;;;4975928;28;20070;-64
2021/12/13 04:23:13;;;;;;;13.82;6.82;;;7.80;93.70;;;;;;4966152;28;20030;-65
2021/12/13 04:25:43;;;;;;;20.88;10.02;;;7.80;93.70;;;;;;4966223;28;20027;-65
2021/12/13 04:28:13;;;;;;;20.25;8.18;;;7.80;93.70;;;;;;4956203;28;20046;-65
2021/12/13 04:31:00;;;;;;;17.75;7.50;;;7.80;93.70;;;;;;4968611;28;20023;-65
2021/12/13 04:33:30;;;;;;;20.17;8.60;;;7.80;93.70;;;;;;4962549;28;20042;-64
2021/12/13 04:36:01;;;;;;;17.45;7.57;;;7.80;93.70;;;;;;4966708;28;20039;-65
2021/12/13 04:38:40;;;;;;;19.67;8.55;;;7.80;93.70;;;;;;4964499;28;20067;-64
2021/12/13 04:41:06;;;;;;;21.63;8.30;;;7.80;93.80;;;;;;4963592;28;20138;-67
2021/12/13 04:43:35;;;;;;;22.70;9.70;;;7.80;93.80;;;;;;4965605;28;20077;-65
2021/12/13 04:46:04;;;;;;;21.38;7.85;;;7.80;93.80;;;;;;4963496;28;20053;-64
2021/12/13 04:48:37;;;;;;;24.52;8.93;;;7.80;93.70;;;;;;4965714;28;20030;-64
2021/12/13 04:51:10;;;;;;;20.80;8.77;;;7.80;93.80;;;;;;4964815;28;20048;-65
2021/12/13 04:53:40;;;;;;;24.60;10.00;;;7.80;93.70;;;;;;4964388;28;20503;-65
2021/12/13 04:56:10;;;;;;;19.17;8.50;;;7.80;93.70;;;;;;4960890;28;20035;-64
2021/12/13 04:58:38;;;;;;;19.83;9.02;;;7.80;93.70;;;;;;4963893;28;20049;-64
2021/12/13 05:01:07;;;;;;;20.27;7.90;;;7.70;93.90;;;;;;4965550;28;20037;-65
2021/12/13 05:03:38;;;;;;;17.80;7.43;;;7.70;94.00;;;;;;4967738;28;20451;-65
2021/12/13 05:06:19;;;;;;;17.88;8.15;;;7.70;94.00;;;;;;4963804;28;20030;-65
2021/12/13 05:08:48;;;;;;;15.57;7.13;;;7.80;94.00;;;;;;4949232;28;20059;-64
2021/12/13 05:11:14;;;;;;;25.35;8.82;;;7.80;93.90;;;;;;4964636;28;20053;-64
2021/12/13 05:13:46;;;;;;;21.88;9.52;;;7.80;93.90;;;;;;4963802;28;20038;-64
2021/12/13 05:16:17;;;;;;;22.45;8.85;;;7.80;93.90;;;;;;4968790;28;20122;-65
2021/12/13 05:18:52;;;;;;;16.52;7.03;;;7.90;93.80;;;;;;4965875;28;20038;-64
2021/12/13 05:21:27;;;;;;;17.27;7.55;;;7.80;93.90;;;;;;4965049;28;20049;-64
2021/12/13 05:23:58;;;;;;;17.00;7.57;;;7.90;93.90;;;;;;4963005;28;20487;-64
2021/12/13 05:26:37;;;;;;;17.60;7.55;;;7.90;93.90;;;;;;4967496;28;20185;-66
2021/12/13 05:29:05;;;;;;;17.27;7.57;;;7.90;93.90;;;;;;4965180;28;20030;-64
2021/12/13 05:31:32;;;;;;;14.32;6.15;;;7.90;93.80;;;;;;4965868;28;20082;-64
2021/12/13 05:34:04;;;;;;;16.08;6.78;;;7.90;93.80;;;;;;4965727;28;20038;-64
2021/12/13 05:36:35;;;;;;;14.13;6.80;;;8.00;93.80;;;;;;4965136;28;20481;-66
2021/12/13 05:39:04;;;;;;;25.38;9.80;;;8.00;93.80;;;;;;4966327;28;20045;-65
2021/12/13 05:41:30;;;;;;;16.83;8.00;;;8.00;93.70;;;;;;4965379;28;20466;-64
2021/12/13 05:44:04;;;;;;;19.67;7.50;;;8.00;93.70;;;;;;4967001;28;20037;-65
2021/12/13 05:46:40;;;;;;;17.88;7.15;;;8.00;93.70;;;;;;4965161;28;20030;-65
2021/12/13 05:49:16;;;;;;;15.07;6.40;;;8.00;93.70;;;;;;4966177;28;20034;-64
2021/12/13 05:51:45;;;;;;;19.00;7.13;;;8.00;93.70;;;;;;4961603;28;20467;-65
2021/12/13 05:54:28;;;;;;;19.05;7.20;;;8.00;93.70;;;;;;4968357;28;20356;-65
2021/12/13 05:56:59;;;;;;;17.88;7.30;;;8.00;93.70;;;;;;4966542;28;20114;-65
2021/12/13 05:59:39;;;;;;;17.27;7.25;;;8.00;93.70;;;;;;4964911;28;20435;-65
2021/12/13 06:02:13;;;;;;;17.77;7.70;;;8.10;93.70;;;;;;4963824;28;20034;-65
2021/12/13 06:05:05;;;;;;;16.75;6.90;;;8.10;93.70;;;;;;4963702;28;20863;-64
2021/12/13 06:07:34;;;;;;;17.15;6.45;;;8.10;93.60;;;;;;4964779;28;20038;-67
2021/12/13 06:10:04;;;;;;;19.15;6.90;;;8.10;93.60;;;;;;4963111;28;20799;-65
2021/12/13 06:12:45;;;;;;;14.63;6.88;;;8.10;93.60;;;;;;4969626;28;20730;-65
2021/12/13 06:15:17;;;;;;;19.17;7.80;;;8.10;93.60;;;;;;4962736;28;20039;-64
2021/12/13 06:17:46;;;;;;;14.93;6.93;;;8.10;93.60;;;;;;4962014;28;20122;-64
2021/12/13 06:20:16;;;;;;;15.00;6.68;;;8.20;93.60;;;;;;4968060;28;20072;-64
2021/12/13 06:22:43;;;;;;;13.68;6.72;;;8.20;93.60;;;;;;4961235;28;20038;-64
2021/12/13 06:25:14;;;;;;;14.18;6.63;;;8.20;93.60;;;;;;4959657;28;20123;-65
2021/12/13 06:27:46;;;;;;;14.52;6.35;;;8.20;93.50;;;;;;4965104;28;20045;-65
2021/12/13 06:30:34;;;;;;;14.93;6.82;;;8.20;93.50;;;;;;4961682;28;20052;-65
2021/12/13 06:33:04;;;;;;;14.57;6.80;;;8.30;93.50;;;;;;4959214;28;20479;-65
2021/12/13 06:36:03;;;;;;;16.73;7.10;;;8.20;93.40;;;;;;4961474;28;21004;-65
2021/12/13 06:38:51;;;;;;;19.05;8.18;;;8.20;93.40;;;;;;4961260;28;20530;-65
2021/12/13 06:41:38;;;;;;;12.20;6.00;;;8.20;93.50;;;;;;4963426;28;20137;-65
2021/12/13 06:44:20;;;;;;;14.18;6.60;;;8.20;93.40;;;;;;4960494;28;21002;-65
2021/12/13 06:46:51;;;;;;;14.50;6.78;;;8.20;93.40;;;;;;4962126;28;20026;-65
2021/12/13 06:49:28;;;;;;;15.02;6.57;;;8.20;93.40;;;;;;4959691;28;20074;-65
2021/12/13 06:52:12;;;;;;;17.20;7.78;;;8.20;93.50;;;;;;4961051;28;20114;-65
2021/12/13 06:54:48;;;;;;;17.17;7.25;;;8.20;93.50;;;;;;4961327;28;20503;-65
2021/12/13 06:57:31;;;;;;;14.35;7.40;;;8.30;93.50;;;;;;4961676;28;20039;-65
2021/12/13 07:00:23;;;;;;;14.32;7.63;;;8.30;93.50;;;;;;4961179;28;20638;-65
2021/12/13 07:03:03;;;;;;;13.65;6.78;;;8.20;93.50;;;;;;4959567;28;20575;-64
2021/12/13 07:05:45;;;;;;;11.75;5.72;;;8.30;93.50;;;;;;4958845;28;20077;-65
2021/12/13 07:08:22;;;;;;;13.05;7.35;;;8.30;93.50;;;;;;4961486;28;20063;-64
2021/12/13 07:10:57;;;;;;;12.00;5.97;;;8.20;93.50;;;;;;4960618;28;20035;-64
2021/12/13 07:13:50;;;;;;;10.77;6.13;;;8.30;93.60;;;;;;4963424;28;20035;-65
2021/12/13 07:16:22;;;;;;;12.98;6.85;;;8.30;93.60;;;;;;4965350;28;20046;-65
2021/12/13 07:18:54;;;;;;;14.23;7.10;;;8.30;93.50;;;;;;4967839;28;20058;-64
2021/12/13 07:21:31;;;;;;;14.52;6.95;;;8.30;93.50;;;;;;4978550;28;20031;-64
2021/12/13 07:24:09;;;;;;;11.85;6.40;;;8.30;93.60;;;;;;4961554;28;20058;-64
2021/12/13 07:26:39;;;;;;;13.18;6.75;;;8.30;93.60;;;;;;4961870;28;20050;-64
2021/12/13 07:29:10;;;;;;;12.88;6.65;;;8.30;93.70;;;;;;4961114;28;20052;-66
2021/12/13 07:31:38;;;;;;;13.57;7.22;;;8.30;93.70;;;;;;4961774;28;20729;-66
2021/12/13 07:34:19;;;;;;;11.95;6.50;;;8.30;93.70;;;;;;4964707;28;20043;-65
2021/12/13 07:36:57;;;;;;;12.02;6.10;;;8.30;93.70;;;;;;4960210;28;20735;-66
2021/12/13 07:39:27;;;;;;;12.07;6.03;;;8.30;93.80;;;;;;4962842;28;20038;-66
2021/12/13 07:41:58;;;;;;;9.93;5.78;;;8.40;93.70;;;;;;4965990;28;20039;-66
2021/12/13 07:44:41;;;;;;;10.23;5.80;;;8.40;93.70;;;;;;4964384;28;20158;-66
2021/12/13 07:47:23;;;;;;;9.20;4.65;;;8.40;93.70;;;;;;4959160;28;20031;-66
2021/12/13 07:49:59;;;;;;;9.27;5.13;;;8.40;93.60;;;;;;4962750;28;20034;-66
2021/12/13 07:52:32;;;;;;;10.53;5.70;;;8.50;93.60;;;;;;4962934;28;20129;-67
2021/12/13 07:55:18;;;;;;;9.85;5.35;;;8.50;93.60;;;;;;4965869;28;20286;-67
2021/12/13 07:57:44;;;;;;;10.70;5.40;;;8.50;93.60;;;;;;4963317;28;20427;-66
2021/12/13 08:00:17;;;;;;;9.63;4.80;;;8.50;93.50;;;;;;4962808;28;20054;-67
2021/12/13 08:03:00;;;;;;;10.23;5.57;;;8.60;93.50;;;;;;4963167;28;20045;-67
2021/12/13 08:05:38;;;;;;;7.78;5.18;;;8.60;93.50;;;;;;4963985;28;20550;-67
2021/12/13 08:08:06;;;;;;;9.68;5.70;;;8.60;93.50;;;;;;4963100;28;20062;-67
2021/12/13 08:10:38;;;;;;;10.50;5.60;;;8.60;93.40;;;;;;4964285;28;20115;-66
2021/12/13 08:13:13;;;;;;;10.05;4.90;;;8.60;93.40;;;;;;4962564;28;20054;-67
2021/12/13 08:15:48;;;;;;;8.85;5.05;;;8.70;93.50;;;;;;4962239;28;20031;-67
2021/12/13 08:18:28;;;;;;;10.27;5.72;;;8.70;93.50;;;;;;4964712;28;20034;-66
2021/12/13 08:21:01;;;;;;;10.30;5.45;;;8.70;93.60;;;;;;4963627;28;20050;-66
2021/12/13 08:23:41;;;;;;;10.32;5.95;;;8.70;93.60;;;;;;4964408;28;20118;-66
2021/12/13 08:26:10;;;;;;;7.53;4.78;;;8.70;93.60;;;;;;4962729;28;20054;-65
2021/12/13 08:28:43;;;;;;;9.02;5.30;;;8.80;93.50;;;;;;4964045;28;20153;-66
2021/12/13 08:31:29;;;;;;;7.90;5.00;;;8.80;93.50;;;;;;4961982;28;20081;-66
2021/12/13 08:34:06;;;;;;;8.18;4.57;;;8.90;93.50;;;;;;4963866;28;20035;-66
2021/12/13 08:36:39;;;;;;;8.35;4.75;;;8.90;93.50;;;;;;4966187;28;20035;-66
2021/12/13 08:39:27;;;;;;;7.95;4.63;;;8.90;93.50;;;;;;4963447;28;20027;-66
2021/12/13 08:41:57;;;;;;;8.82;5.30;;;9.00;93.50;;;;;;4950712;28;20110;-66
2021/12/13 08:44:33;;;;;;;10.65;6.07;;;9.00;93.50;;;;;;4962712;28;20038;-66
2021/12/13 08:47:06;;;;;;;9.70;6.88;;;9.00;93.50;;;;;;4970494;28;20038;-66
2021/12/13 08:49:53;;;;;;;11.68;6.70;;;9.00;93.50;;;;;;4960128;28;20082;-66
2021/12/13 08:52:24;;;;;;;8.00;5.78;;;9.10;93.40;;;;;;4961822;28;20038;-65
2021/12/13 08:55:10;;;;;;;9.27;6.10;;;9.10;93.30;;;;;;4960680;28;20118;-65
2021/12/13 08:57:45;;;;;;;;;;;9.20;93.40;;;;;;4960226;28;20403;-65
2021/12/13 09:00:14;;;;;;;9.85;6.03;;;9.20;93.30;;;;;;4962739;28;19925;-64
2021/12/13 09:02:54;;;;;;;9.65;6.32;;;9.20;93.40;;;;;;4961116;28;20442;-64
2021/12/13 09:05:28;;;;;;;8.48;5.03;;;9.20;93.40;;;;;;4959868;28;20089;-65
2021/12/13 09:08:10;;;;;;;7.50;4.78;;;9.30;93.50;;;;;;4962151;28;20097;-65
2021/12/13 09:10:42;;;;;;;9.02;5.45;;;9.40;93.50;;;;;;4964022;28;20853;-65
2021/12/13 09:13:08;;;;;;;8.45;5.82;;;9.40;93.50;;;;;;4962325;28;20042;-64
2021/12/13 09:15:35;;;;;;;8.80;5.05;;;9.40;93.50;;;;;;4962500;28;20031;-65
2021/12/13 09:18:03;;;;;;;8.25;5.00;;;9.50;93.50;;;;;;4963714;28;20030;-64
2021/12/13 09:20:41;;;;;;;7.60;4.60;;;9.50;93.40;;;;;;4961985;28;20039;-65
2021/12/13 09:23:17;;;;;;;9.00;5.38;;;9.60;93.40;;;;;;4960247;28;20468;-65
2021/12/13 09:25:54;;;;;;;8.60;5.10;;;9.60;93.30;;;;;;4960318;28;20830;-67
2021/12/13 09:28:24;;;;;;;8.50;5.32;;;9.60;93.30;;;;;;4961906;28;20740;-65
2021/12/13 09:30:55;;;;;;;8.65;5.82;;;9.70;93.20;;;;;;4960274;28;20168;-65
2021/12/13 09:33:28;;;;;;;9.75;5.75;;;9.70;93.10;;;;;;4962063;28;20396;-64
2021/12/13 09:36:01;;;;;;;8.65;5.30;;;9.70;93.10;;;;;;4967809;28;20754;-65
2021/12/13 09:38:29;;;;;;;10.07;5.70;;;9.70;93.10;;;;;;4962156;28;20110;-64
2021/12/13 09:41:18;;;;;;;6.88;4.95;;;9.70;93.20;;;;;;4958085;28;20447;-65
2021/12/13 09:44:15;;;;;;;13.50;6.75;;;9.70;93.20;;;;;;4959347;28;20043;-65
2021/12/13 09:46:55;;;;;;;14.60;6.40;;;9.80;93.30;;;;;;4962260;28;20030;-65
2021/12/13 09:49:35;;;;;;;17.08;8.25;;;9.80;93.30;;;;;;4962577;28;20039;-65
2021/12/13 09:52:25;;;;;;;12.50;7.25;;;9.80;93.30;;;;;;4965009;28;20796;-66
2021/12/13 09:55:12;;;;;;;11.55;6.80;;;9.80;93.30;;;;;;4966964;28;20880;-65
2021/12/13 09:57:53;;;;;;;10.23;5.88;;;9.90;93.30;;;;;;4964312;28;20046;-65
2021/12/13 10:00:40;;;;;;;6.55;4.45;;;9.90;93.30;;;;;;4959891;28;20034;-67
2021/12/13 10:03:17;;;;;;;7.50;4.93;;;10.00;93.30;;;;;;4960745;28;20034;-67
2021/12/13 10:05:46;;;;;;;9.45;4.60;;;10.00;93.30;;;;;;4963027;28;20080;-67
2021/12/13 10:08:17;;;;;;;6.10;4.10;;;10.10;93.30;;;;;;4966339;28;20050;-67
2021/12/13 10:10:51;;;;;;;6.22;4.20;;;10.10;93.30;;;;;;4965250;28;20026;-67
2021/12/13 10:13:22;;;;;;;7.38;4.30;;;10.10;93.30;;;;;;4955776;28;20093;-66
2021/12/13 10:16:02;;;;;;;7.25;4.90;;;10.10;93.30;;;;;;4961563;28;20026;-65
2021/12/13 10:18:32;;;;;;;11.52;7.35;;;10.20;93.30;;;;;;4972159;28;20491;-66
2021/12/13 10:21:04;;;;;;;11.57;6.47;;;10.20;93.30;;;;;;4970886;28;20122;-66
2021/12/13 10:23:34;;;;;;;13.35;8.00;;;10.20;93.30;;;;;;4962914;28;20027;-66
2021/12/13 10:26:02;;;;;;;15.45;7.72;;;10.20;93.30;;;;;;4967100;28;20081;-66
2021/12/13 10:28:32;;;;;;;12.85;7.18;;;10.20;93.30;;;;;;4964050;28;20035;-65
2021/12/13 10:31:17;;;;;;;13.00;6.95;;;10.20;93.30;;;;;;4963105;28;20526;-66
2021/12/13 10:33:44;;;;;;;11.07;6.60;;;10.30;93.40;;;;;;4966012;28;20210;-67
2021/12/13 10:36:10;;;;;;;10.85;6.35;;;10.30;93.40;;;;;;4969877;28;20787;-66
2021/12/13 10:38:53;;;;;;;11.00;7.30;;;10.30;93.30;;;;;;4966085;28;20034;-66
2021/12/13 10:41:32;;;;;;;11.00;6.75;;;10.40;93.30;;;;;;4960946;28;20035;-66
2021/12/13 10:44:05;;;;;;;12.00;6.32;;;10.40;93.30;;;;;;4963680;28;20674;-66
2021/12/13 10:46:37;;;;;;;19.23;8.95;;;10.50;93.40;;;;;;4961263;28;20045;-66
2021/12/13 10:49:15;;;;;;;15.18;8.00;;;10.50;93.30;;;;;;4966048;28;20500;-66
2021/12/13 10:51:54;;;;;;;13.68;7.13;;;10.50;93.20;;;;;;4966513;28;20066;-66
2021/12/13 10:54:25;;;;;;;11.35;7.38;;;10.50;93.40;;;;;;4960127;28;20440;-66
2021/12/13 10:56:56;;;;;;;20.25;11.05;;;10.50;93.50;;;;;;4964218;28;20058;-65
2021/12/13 10:59:25;;;;;;;14.63;8.70;;;10.60;93.50;;;;;;4961530;28;20841;-66
2021/12/13 11:01:54;;;;;;;11.50;7.32;;;10.60;93.40;;;;;;4965977;28;20037;-65
2021/12/13 11:04:30;;;;;;;13.73;7.35;;;10.70;93.40;;;;;;4967982;28;20121;-66
2021/12/13 11:06:56;;;;;;;11.13;7.00;;;10.70;93.40;;;;;;4966920;28;20034;-66
2021/12/13 11:09:24;;;;;;;13.50;9.40;;;10.80;93.40;;;;;;4964576;28;20050;-65
2021/12/13 11:11:58;;;;;;;13.40;8.95;;;10.80;93.40;;;;;;4964341;28;20106;-66
2021/12/13 11:14:26;;;;;;;11.10;7.63;;;10.80;93.30;;;;;;4964393;28;20045;-66
2021/12/13 11:16:59;;;;;;;14.60;10.60;;;10.80;93.20;;;;;;4972749;28;20061;-66
2021/12/13 11:19:29;;;;;;;13.18;9.93;;;10.80;93.30;;;;;;4962919;28;20476;-66
2021/12/13 11:22:01;;;;;;;17.67;11.18;;;10.90;93.30;;;;;;4976387;28;20042;-66
2021/12/13 11:24:30;;;;;;;15.07;9.80;;;10.90;93.30;;;;;;4968030;28;20027;-64
2021/12/13 11:27:03;;;;;;;17.48;10.15;;;11.00;93.40;;;;;;4967601;28;20039;-64
2021/12/13 11:29:29;;;;;;;15.50;9.88;;;11.00;93.40;;;;;;4969677;28;20518;-64
2021/12/13 11:31:55;;;;;;;15.00;10.80;;;11.10;93.30;;;;;;4976816;28;20551;-64
2021/12/13 11:34:24;;;;;;;14.98;10.13;;;11.10;93.40;;;;;;4976631;28;20041;-64
2021/12/13 11:37:13;;;;;;;11.95;9.77;;;11.20;93.50;;;;;;4974314;28;20078;-64
2021/12/13 11:39:47;;;;;;;11.95;7.72;;;11.20;93.40;;;;;;4968100;28;20046;-64
2021/12/13 11:42:24;;;;;;;9.40;6.63;;;11.20;93.50;;;;;;4963861;28;20133;-64
2021/12/13 11:45:12;;;;;;;7.70;5.32;;;11.30;93.50;;;;;;4974073;28;20039;-64
2021/12/13 11:47:41;;;;;;;8.27;4.75;;;11.30;93.40;;;;;;4967525;28;20852;-63
2021/12/13 11:50:21;;;;;;;6.05;4.20;;;11.30;93.40;;;;;;4970628;28;20076;-64
2021/12/13 11:52:59;;;;;;;6.15;4.30;;;11.30;93.40;;;;;;4967847;28;20039;-64
2021/12/13 11:56:03;;;;;;;7.22;3.97;;;11.30;93.50;;;;;;4964867;28;20038;-64
2021/12/13 11:58:54;;;;;;;5.78;3.85;;;11.30;93.80;;;;;;4970865;28;20035;-64
2021/12/13 12:02:02;;;;;;;9.40;4.45;;;11.30;93.50;;;;;;4964304;28;20138;-64
2021/12/13 12:05:04;;;;;;;5.53;3.60;;;11.20;93.60;;;;;;4964797;28;20129;-64
2021/12/13 12:08:12;;;;;;;3.45;2.53;;;11.20;93.60;;;;;;4964890;28;20039;-64
2021/12/13 12:10:49;;;;;;;5.38;3.30;;;11.20;93.60;;;;;;4961381;28;20070;-64
2021/12/13 12:13:36;;;;;;;5.68;3.55;;;11.20;93.60;;;;;;4971530;28;20034;-64
2021/12/13 12:16:05;;;;;;;6.32;3.85;;;11.20;93.70;;;;;;4965750;28;20045;-63
2021/12/13 12:18:35;;;;;;;6.43;3.97;;;11.20;93.70;;;;;;4967525;28;20034;-64
2021/12/13 12:21:29;;;;;;;4.97;3.30;;;11.20;93.80;;;;;;4948588;28;20073;-64
2021/12/13 12:23:55;;;;;;;5.93;3.55;;;11.30;93.80;;;;;;4963765;28;20751;-64
2021/12/13 12:26:22;;;;;;;7.32;3.90;;;11.30;93.80;;;;;;4969337;28;21017;-64
2021/12/13 12:28:50;;;;;;;6.70;3.95;;;11.30;93.80;;;;;;4970737;28;20035;-64
2021/12/13 12:31:16;;;;;;;11.68;5.18;;;11.30;93.80;;;;;;4967455;28;20121;-64
2021/12/13 12:33:42;;;;;;;15.90;6.75;;;11.30;93.90;;;;;;4966852;28;20146;-64
2021/12/13 12:36:21;;;;;;;14.43;5.18;;;11.30;93.90;;;;;;4965114;28;20130;-64
2021/12/13 12:39:02;;;;;;;12.35;5.60;;;11.40;93.90;;;;;;4965378;28;20487;-64
2021/12/13 12:41:45;;;;;;;8.30;4.03;;;11.40;93.90;;;;;;4966288;28;20039;-64
2021/12/13 12:44:21;;;;;;;11.48;5.45;;;11.40;94.00;;;;;;4967657;28;20057;-64
2021/12/13 12:46:47;;;;;;;;;;;11.40;94.00;;;;;;4967058;28;20039;-64
2021/12/13 12:49:21;;;;;;;10.53;5.03;;;11.50;94.00;;;;;;4965204;28;19992;-64
2021/12/13 12:51:49;;;;;;;9.13;4.80;;;11.50;94.00;;;;;;4963537;28;20466;-63
2021/12/13 12:54:19;;;;;;;12.07;5.43;;;11.50;94.00;;;;;;4970131;28;20042;-63
2021/12/13 12:56:49;;;;;;;10.05;5.95;;;11.50;94.00;;;;;;4970220;28;20038;-64
2021/12/13 12:59:26;;;;;;;10.15;4.97;;;11.50;94.00;;;;;;4967102;28;20043;-64
2021/12/13 13:01:58;;;;;;;12.60;6.32;;;11.50;94.00;;;;;;4967444;28;20041;-64
2021/12/13 13:04:43;;;;;;;11.65;5.68;;;11.50;94.00;;;;;;4970489;28;20353;-64
2021/12/13 13:07:11;;;;;;;13.68;6.63;;;11.50;94.00;;;;;;4965988;28;20030;-64
2021/12/13 13:09:42;;;;;;;11.80;6.68;;;11.50;94.00;;;;;;4976020;28;20563;-63
2021/12/13 13:12:12;;;;;;;16.00;6.75;;;11.50;94.10;;;;;;4969839;28;20074;-64
2021/12/13 13:14:48;;;;;;;13.15;7.40;;;11.50;94.10;;;;;;4966639;28;20069;-64
2021/12/13 13:17:15;;;;;;;15.55;7.65;;;11.60;94.10;;;;;;4962055;28;20066;-63
2021/12/13 13:19:45;;;;;;;17.77;8.13;;;11.60;94.10;;;;;;4964539;28;20054;-64
2021/12/13 13:22:23;;;;;;;16.40;7.65;;;11.60;94.10;;;;;;4970433;28;20394;-64
2021/12/13 13:24:54;;;;;;;15.95;7.28;;;11.60;94.10;;;;;;4970734;28;20027;-66
2021/12/13 13:27:22;;;;;;;15.68;8.23;;;11.60;94.10;;;;;;4964106;28;20039;-65
2021/12/13 13:29:49;;;;;;;19.67;9.68;;;11.60;94.00;;;;;;4967405;28;20058;-64
2021/12/13 13:32:15;;;;;;;18.40;8.25;;;11.70;94.00;;;;;;4964821;28;20551;-64
2021/12/13 13:34:48;;;;;;;16.27;7.80;;;11.70;94.10;;;;;;4964504;28;20129;-67